createdAt,value
2019-03-09T00:00:55.605Z,12.00
2019-03-09T00:03:24.146Z,11.80
2019-03-09T00:05:52.623Z,11.60
2019-03-09T00:08:21.051Z,11.50
2019-03-09T00:10:49.811Z,11.40
2019-03-09T00:13:18.247Z,11.30
2019-03-09T00:15:46.589Z,11.20
2019-03-09T00:18:15.052Z,11.20
2019-03-09T00:20:43.592Z,11.10
2019-03-09T00:23:13.626Z,11.10
2019-03-09T00:25:43.651Z,11.00
2019-03-09T00:28:20.035Z,11.00
2019-03-09T00:30:50.016Z,11.00
2019-03-09T00:33:18.474Z,11.00
2019-03-09T00:35:47.246Z,11.00
2019-03-09T00:38:15.598Z,11.10
2019-03-09T00:40:44.040Z,11.00
2019-03-09T00:43:12.627Z,10.90
2019-03-09T00:45:41.061Z,10.90
2019-03-09T00:48:09.550Z,10.90
2019-03-09T00:50:39.024Z,10.90
2019-03-09T00:53:07.435Z,11.00
2019-03-09T00:55:35.857Z,11.10
2019-03-09T00:58:04.372Z,11.00
2019-03-09T01:00:32.810Z,10.90
2019-03-09T01:03:01.315Z,10.80
2019-03-09T01:05:29.884Z,10.90
2019-03-09T01:07:58.301Z,10.90
2019-03-09T01:10:26.892Z,10.80
2019-03-09T01:12:56.416Z,10.80
2019-03-09T01:15:24.777Z,10.90
2019-03-09T01:17:53.192Z,11.00
2019-03-09T01:20:21.714Z,11.00
2019-03-09T01:22:50.285Z,10.90
2019-03-09T01:25:18.768Z,10.90
2019-03-09T01:27:47.209Z,10.90
2019-03-09T01:30:17.396Z,10.90
2019-03-09T01:32:45.893Z,10.80
2019-03-09T01:35:14.354Z,10.90
2019-03-09T01:37:42.821Z,10.90
2019-03-09T01:40:15.511Z,10.70
2019-03-09T01:42:44.036Z,10.60
2019-03-09T01:45:15.113Z,10.60
2019-03-09T01:47:43.552Z,10.70
2019-03-09T01:50:11.965Z,10.70
2019-03-09T01:52:40.416Z,10.70
2019-03-09T01:55:13.078Z,10.70
2019-03-09T01:57:41.608Z,10.60
2019-03-09T02:00:12.858Z,10.40
2019-03-09T02:02:41.190Z,10.50
2019-03-09T02:05:09.728Z,10.50
2019-03-09T02:07:38.211Z,10.60
2019-03-09T02:10:14.444Z,10.60
2019-03-09T02:12:42.902Z,10.50
2019-03-09T02:15:17.417Z,10.60
2019-03-09T02:17:45.790Z,10.60
2019-03-09T02:20:15.252Z,10.60
2019-03-09T02:22:43.786Z,10.60
2019-03-09T02:25:12.882Z,10.60
2019-03-09T02:27:41.404Z,10.60
2019-03-09T02:30:17.926Z,10.60
2019-03-09T02:32:46.343Z,10.60
2019-03-09T02:35:15.813Z,10.50
2019-03-09T02:37:44.313Z,10.40
2019-03-09T02:40:14.659Z,10.40
2019-03-09T02:42:43.075Z,10.40
2019-03-09T02:45:17.161Z,10.30
2019-03-09T02:47:45.556Z,10.20
2019-03-09T02:50:16.029Z,10.20
2019-03-09T02:52:44.711Z,10.20
2019-03-09T02:55:13.739Z,10.10
2019-03-09T02:57:42.206Z,10.20
2019-03-09T03:00:13.892Z,10.10
2019-03-09T03:02:46.756Z,10.20
2019-03-09T03:05:15.564Z,10.20
2019-03-09T03:07:44.008Z,10.10
2019-03-09T03:10:14.076Z,10.10
2019-03-09T03:12:42.510Z,10.00
2019-03-09T03:15:12.957Z,10.00
2019-03-09T03:17:41.461Z,9.90
2019-03-09T03:20:09.894Z,9.90
2019-03-09T03:22:38.265Z,9.80
2019-03-09T03:25:06.832Z,9.80
2019-03-09T03:27:54.721Z,9.80
2019-03-09T03:30:23.243Z,9.80
2019-03-09T03:32:53.300Z,9.70
2019-03-09T03:35:21.741Z,9.70
2019-03-09T03:37:50.293Z,9.60
2019-03-09T03:40:18.725Z,9.60
2019-03-09T03:42:47.147Z,9.60
2019-03-09T03:45:15.604Z,9.50
2019-03-09T03:47:44.021Z,9.40
2019-03-09T03:50:12.382Z,9.30
2019-03-09T03:52:40.949Z,9.30
2019-03-09T03:55:11.035Z,9.20
2019-03-09T03:57:39.447Z,9.20
2019-03-09T04:00:13.940Z,9.10
2019-03-09T04:02:42.407Z,9.10
2019-03-09T04:05:10.789Z,9.10
2019-03-09T04:07:40.338Z,9.10
2019-03-09T04:10:11.170Z,9.00
2019-03-09T04:12:39.612Z,9.00
2019-03-09T04:15:08.338Z,8.90
2019-03-09T04:17:36.662Z,8.90
2019-03-09T04:20:07.362Z,8.90
2019-03-09T04:22:35.787Z,8.80
2019-03-09T04:25:05.386Z,8.80
2019-03-09T04:27:33.935Z,8.80
2019-03-09T04:30:02.519Z,8.80
2019-03-09T04:32:30.963Z,8.90
2019-03-09T04:34:59.440Z,9.00
2019-03-09T04:37:27.974Z,8.90
2019-03-09T04:39:56.429Z,8.80
2019-03-09T04:42:24.849Z,8.80
2019-03-09T04:44:53.338Z,8.80
2019-03-09T04:47:21.821Z,8.70
2019-03-09T04:49:50.372Z,8.70
2019-03-09T04:52:18.770Z,8.60
2019-03-09T04:54:47.212Z,8.60
2019-03-09T04:57:15.568Z,8.70
2019-03-09T04:59:44.141Z,8.70
2019-03-09T05:02:12.493Z,8.70
2019-03-09T05:04:42.988Z,8.70
2019-03-09T05:07:13.466Z,8.60
2019-03-09T05:10:03.101Z,8.60
2019-03-09T05:12:32.274Z,8.60
2019-03-09T05:15:00.753Z,8.60
2019-03-09T05:17:29.116Z,8.60
2019-03-09T05:19:57.677Z,8.60
2019-03-09T05:22:26.078Z,8.70
2019-03-09T05:24:54.503Z,8.70
2019-03-09T05:27:22.980Z,8.70
2019-03-09T05:29:51.413Z,8.70
2019-03-09T05:32:19.915Z,8.70
2019-03-09T05:34:48.387Z,8.70
2019-03-09T05:37:16.810Z,8.70
2019-03-09T05:39:45.260Z,8.60
2019-03-09T05:42:13.613Z,8.50
2019-03-09T05:44:41.902Z,8.60
2019-03-09T05:47:10.372Z,8.70
2019-03-09T05:49:38.716Z,8.60
2019-03-09T05:52:19.320Z,8.60
2019-03-09T05:54:47.678Z,8.50
2019-03-09T05:57:16.132Z,8.50
2019-03-09T05:59:44.549Z,8.60
2019-03-09T06:02:12.943Z,8.50
2019-03-09T06:04:41.369Z,8.50
2019-03-09T06:07:09.829Z,8.50
2019-03-09T06:09:38.268Z,8.50
2019-03-09T06:12:06.750Z,8.60
2019-03-09T06:14:35.202Z,8.50
2019-03-09T06:17:03.621Z,8.50
2019-03-09T06:19:32.044Z,8.50
2019-03-09T06:22:00.340Z,8.50
2019-03-09T06:24:28.678Z,8.50
2019-03-09T06:26:57.170Z,8.50
2019-03-09T06:29:25.626Z,8.50
2019-03-09T06:32:16.981Z,8.60
2019-03-09T06:34:45.340Z,8.60
2019-03-09T06:37:13.834Z,8.60
2019-03-09T06:39:42.303Z,8.60
2019-03-09T06:42:14.000Z,8.70
2019-03-09T06:44:42.426Z,8.70
2019-03-09T06:47:10.871Z,8.80
2019-03-09T06:49:39.332Z,8.80
2019-03-09T06:52:07.752Z,8.80
2019-03-09T06:54:36.111Z,8.80
2019-03-09T06:57:13.255Z,8.80
2019-03-09T06:59:34.552Z,8.90
2019-03-09T07:02:02.922Z,9.10
2019-03-09T07:04:31.209Z,9.20
2019-03-09T07:06:59.598Z,9.20
2019-03-09T07:09:28.060Z,9.20
2019-03-09T07:11:56.431Z,9.20
2019-03-09T07:14:54.143Z,9.30
2019-03-09T07:17:22.596Z,9.40
2019-03-09T07:19:59.889Z,9.40
2019-03-09T07:22:28.235Z,9.60
2019-03-09T07:24:56.651Z,9.70
2019-03-09T07:27:25.153Z,9.80
2019-03-09T07:29:53.601Z,9.80
2019-03-09T07:32:22.082Z,9.90
2019-03-09T07:34:51.651Z,10.00
2019-03-09T07:37:20.170Z,10.10
2019-03-09T07:39:48.666Z,10.20
2019-03-09T07:42:17.129Z,10.40
2019-03-09T07:44:45.497Z,10.50
2019-03-09T07:47:13.981Z,10.60
2019-03-09T07:49:42.348Z,10.70
2019-03-09T07:52:28.434Z,10.80
2019-03-09T07:54:56.803Z,11.00
2019-03-09T07:57:25.245Z,11.10
2019-03-09T07:59:53.719Z,11.30
2019-03-09T08:02:22.138Z,11.40
2019-03-09T08:04:50.574Z,11.60
2019-03-09T08:07:19.072Z,11.60
2019-03-09T08:09:47.467Z,11.70
2019-03-09T08:12:15.891Z,11.90
2019-03-09T08:14:44.353Z,12.00
2019-03-09T08:17:12.795Z,12.10
2019-03-09T08:19:41.255Z,12.10
2019-03-09T08:22:09.738Z,12.20
2019-03-09T08:24:38.171Z,12.20
2019-03-09T08:27:06.711Z,12.30
2019-03-09T08:29:35.235Z,12.30
2019-03-09T08:32:03.691Z,12.40
2019-03-09T08:34:32.190Z,12.50
2019-03-09T08:37:00.719Z,12.60
2019-03-09T08:39:29.168Z,12.70
2019-03-09T08:41:57.719Z,12.80
2019-03-09T08:44:26.253Z,12.90
2019-03-09T08:46:54.729Z,12.90
2019-03-09T08:49:23.181Z,12.90
2019-03-09T08:51:51.685Z,13.00
2019-03-09T08:54:20.087Z,13.10
2019-03-09T08:56:48.492Z,13.20
2019-03-09T08:59:16.980Z,13.30
2019-03-09T09:01:45.453Z,13.40
2019-03-09T09:04:13.884Z,13.50
2019-03-09T09:06:42.338Z,13.60
2019-03-09T09:09:12.383Z,13.70
2019-03-09T09:11:40.896Z,13.80
2019-03-09T09:14:09.392Z,13.80
2019-03-09T09:16:37.891Z,14.00
2019-03-09T09:19:06.233Z,14.10
2019-03-09T09:21:34.666Z,14.10
2019-03-09T09:24:03.021Z,14.20
2019-03-09T09:26:31.478Z,14.30
2019-03-09T09:28:59.977Z,14.40
2019-03-09T09:31:29.469Z,14.40
2019-03-09T09:33:58.595Z,14.50
2019-03-09T09:36:27.086Z,14.60
2019-03-09T09:38:55.609Z,14.60
2019-03-09T09:41:23.961Z,14.60
2019-03-09T09:43:52.420Z,14.70
2019-03-09T09:46:20.851Z,14.80
2019-03-09T09:48:49.582Z,15.00
2019-03-09T09:51:18.099Z,15.00
2019-03-09T09:53:46.617Z,15.00
2019-03-09T09:56:23.817Z,15.10
2019-03-09T09:58:52.230Z,15.10
2019-03-09T10:01:20.768Z,15.10
2019-03-09T10:03:49.188Z,15.20
2019-03-09T10:06:17.598Z,15.20
2019-03-09T10:08:46.129Z,15.30
2019-03-09T10:11:14.597Z,15.40
2019-03-09T10:13:43.031Z,15.50
2019-03-09T10:16:11.495Z,15.60
2019-03-09T10:18:39.947Z,15.70
2019-03-09T10:21:08.391Z,15.70
2019-03-09T10:23:36.821Z,15.80
2019-03-09T10:26:05.355Z,15.80
2019-03-09T10:28:33.871Z,15.90
2019-03-09T10:31:02.188Z,15.90
2019-03-09T10:33:30.586Z,15.90
2019-03-09T10:35:59.095Z,15.90
2019-03-09T10:38:28.155Z,15.80
2019-03-09T10:40:56.584Z,15.90
2019-03-09T10:43:25.036Z,15.90
2019-03-09T10:45:53.520Z,15.90
2019-03-09T10:48:21.827Z,15.90
2019-03-09T10:50:50.358Z,15.90
2019-03-09T10:53:18.871Z,16.00
2019-03-09T10:55:47.217Z,16.00
2019-03-09T10:58:15.684Z,16.10
2019-03-09T11:00:45.296Z,16.10
2019-03-09T11:03:13.667Z,16.10
2019-03-09T11:05:42.138Z,16.10
2019-03-09T11:08:10.614Z,16.10
2019-03-09T11:10:39.106Z,16.20
2019-03-09T11:13:07.460Z,16.20
2019-03-09T11:15:37.683Z,16.20
2019-03-09T11:18:06.072Z,16.20
2019-03-09T11:20:34.539Z,16.20
2019-03-09T11:23:03.136Z,16.10
2019-03-09T11:25:31.669Z,16.10
2019-03-09T11:28:08.633Z,16.10
2019-03-09T11:30:37.128Z,16.10
2019-03-09T11:33:05.517Z,16.20
2019-03-09T11:35:33.999Z,16.20
2019-03-09T11:38:02.545Z,16.30
2019-03-09T11:40:31.000Z,16.30
2019-03-09T11:42:59.451Z,16.40
2019-03-09T11:45:27.944Z,16.40
2019-03-09T11:47:56.341Z,16.50
2019-03-09T11:50:24.766Z,16.70
2019-03-09T11:52:53.302Z,16.90
2019-03-09T11:55:21.660Z,17.10
2019-03-09T11:57:50.181Z,17.20
2019-03-09T12:00:30.792Z,17.40
2019-03-09T12:02:59.228Z,17.60
2019-03-09T12:05:27.705Z,17.70
2019-03-09T12:07:56.216Z,17.70
2019-03-09T12:10:24.658Z,17.70
2019-03-09T12:12:53.072Z,17.70
2019-03-09T12:15:21.612Z,17.70
2019-03-09T12:17:50.781Z,17.60
2019-03-09T12:20:21.020Z,17.50
2019-03-09T12:22:49.406Z,17.40
2019-03-09T12:25:18.381Z,17.30
2019-03-09T12:27:46.917Z,17.30
2019-03-09T12:30:17.696Z,17.30
2019-03-09T12:32:47.184Z,17.20
2019-03-09T12:35:15.620Z,17.20
2019-03-09T12:37:44.053Z,17.30
2019-03-09T12:40:17.299Z,17.40
2019-03-09T12:42:45.684Z,17.40
2019-03-09T12:45:14.377Z,17.50
2019-03-09T12:47:42.936Z,17.80
2019-03-09T12:50:13.987Z,18.60
2019-03-09T12:52:42.523Z,20.40
2019-03-09T12:55:10.948Z,23.00
2019-03-09T12:57:39.393Z,24.60
2019-03-09T13:00:11.132Z,25.30
2019-03-09T13:02:39.585Z,26.10
2019-03-09T13:05:08.068Z,26.80
2019-03-09T13:07:36.589Z,27.60
2019-03-09T13:10:07.046Z,27.60
2019-03-09T13:12:35.615Z,27.60
2019-03-09T13:15:05.245Z,28.10
2019-03-09T13:17:33.775Z,27.90
2019-03-09T13:20:02.327Z,27.50
2019-03-09T13:22:30.781Z,27.70
2019-03-09T13:24:59.231Z,28.30
2019-03-09T13:27:27.645Z,28.40
2019-03-09T13:29:56.061Z,28.30
2019-03-09T13:32:24.441Z,27.90
2019-03-09T13:34:52.864Z,28.50
2019-03-09T13:37:21.299Z,29.50
2019-03-09T13:39:49.794Z,29.60
2019-03-09T13:42:18.299Z,29.90
2019-03-09T13:44:46.741Z,30.50
2019-03-09T13:47:15.160Z,29.40
2019-03-09T13:49:43.558Z,27.30
2019-03-09T13:52:11.979Z,26.20
2019-03-09T13:54:40.507Z,26.50
2019-03-09T13:57:08.953Z,27.50
2019-03-09T13:59:37.390Z,27.20
2019-03-09T14:02:05.872Z,27.20
2019-03-09T14:04:34.383Z,27.30
2019-03-09T14:07:02.762Z,27.40
2019-03-09T14:09:31.252Z,28.00
2019-03-09T14:11:59.679Z,28.90
2019-03-09T14:14:28.246Z,29.40
2019-03-09T14:16:56.646Z,28.90
2019-03-09T14:19:25.079Z,28.70
2019-03-09T14:21:53.449Z,28.60
2019-03-09T14:24:21.929Z,28.50
2019-03-09T14:26:50.343Z,28.50
2019-03-09T14:29:18.875Z,28.10
2019-03-09T14:31:47.368Z,26.90
2019-03-09T14:34:15.865Z,26.10
2019-03-09T14:36:44.244Z,25.50
2019-03-09T14:39:12.762Z,25.50
2019-03-09T14:42:00.748Z,25.00
2019-03-09T14:44:29.303Z,24.40
2019-03-09T14:46:57.713Z,23.80
2019-03-09T14:49:26.039Z,24.90
2019-03-09T14:52:00.351Z,25.60
2019-03-09T14:54:28.975Z,25.40
2019-03-09T14:56:57.317Z,25.00
2019-03-09T14:59:25.759Z,24.60
2019-03-09T15:01:54.295Z,25.30
2019-03-09T15:04:22.672Z,26.20
2019-03-09T15:06:51.056Z,26.70
2019-03-09T15:09:19.496Z,26.80
2019-03-09T15:11:47.993Z,27.10
2019-03-09T15:14:16.487Z,26.90
2019-03-09T15:16:44.940Z,26.50
2019-03-09T15:19:13.336Z,26.40
2019-03-09T15:22:01.196Z,26.00
2019-03-09T15:24:29.746Z,25.80
2019-03-09T15:26:58.105Z,25.40
2019-03-09T15:29:26.468Z,25.30
2019-03-09T15:31:55.019Z,25.10
2019-03-09T15:34:23.468Z,25.00
2019-03-09T15:36:51.959Z,25.00
2019-03-09T15:39:20.387Z,25.10
2019-03-09T15:41:48.756Z,24.80
2019-03-09T15:44:17.196Z,24.70
2019-03-09T15:46:45.607Z,24.70
2019-03-09T15:49:14.009Z,24.60
2019-03-09T15:51:42.542Z,24.00
2019-03-09T15:54:10.906Z,23.40
2019-03-09T15:56:39.332Z,23.20
2019-03-09T15:59:07.880Z,23.30
2019-03-09T16:01:36.344Z,23.10
2019-03-09T16:04:04.688Z,23.30
2019-03-09T16:06:33.114Z,23.60
2019-03-09T16:09:01.559Z,23.60
2019-03-09T16:11:29.917Z,23.30
2019-03-09T16:13:58.390Z,23.10
2019-03-09T16:16:26.784Z,23.20
2019-03-09T16:18:55.188Z,23.30
2019-03-09T16:21:23.798Z,23.50
2019-03-09T16:23:58.095Z,23.50
2019-03-09T16:26:26.481Z,23.30
2019-03-09T16:28:55.110Z,23.20
2019-03-09T16:31:23.518Z,22.60
2019-03-09T16:33:51.946Z,22.40
2019-03-09T16:36:20.564Z,22.40
2019-03-09T16:38:48.989Z,22.10
2019-03-09T16:41:17.420Z,21.70
2019-03-09T16:43:45.814Z,21.60
2019-03-09T16:46:14.282Z,21.60
2019-03-09T16:48:42.884Z,21.40
2019-03-09T16:51:11.360Z,21.20
2019-03-09T16:53:39.809Z,20.90
2019-03-09T16:56:08.288Z,20.60
2019-03-09T16:58:36.762Z,20.30
2019-03-09T17:01:05.285Z,20.10
2019-03-09T17:03:33.754Z,19.80
2019-03-09T17:06:02.122Z,19.60
2019-03-09T17:08:30.699Z,19.40
2019-03-09T17:10:59.320Z,19.10
2019-03-09T17:13:27.699Z,19.00
2019-03-09T17:15:56.073Z,18.80
2019-03-09T17:18:24.597Z,18.70
2019-03-09T17:20:52.993Z,18.50
2019-03-09T17:23:21.453Z,18.40
2019-03-09T17:25:49.903Z,18.20
2019-03-09T17:28:18.294Z,18.10
2019-03-09T17:30:46.744Z,18.00
2019-03-09T17:33:15.177Z,17.90
2019-03-09T17:35:43.618Z,17.80
2019-03-09T17:38:13.327Z,17.70
2019-03-09T17:40:43.582Z,17.70
2019-03-09T17:43:11.897Z,17.60
2019-03-09T17:45:40.286Z,17.50
2019-03-09T17:48:08.806Z,17.40
2019-03-09T17:50:37.438Z,17.40
2019-03-09T17:53:05.861Z,17.40
2019-03-09T17:55:34.236Z,17.30
2019-03-09T17:58:02.782Z,17.20
2019-03-09T18:00:42.069Z,17.20
2019-03-09T18:03:02.989Z,17.10
2019-03-09T18:05:31.407Z,17.10
2019-03-09T18:07:59.879Z,17.10
2019-03-09T18:10:31.832Z,17.00
2019-03-09T18:13:00.362Z,17.00
2019-03-09T18:15:28.848Z,16.90
2019-03-09T18:17:57.305Z,16.70
2019-03-09T18:20:25.788Z,16.60
2019-03-09T18:22:54.236Z,16.50
2019-03-09T18:25:22.711Z,16.40
2019-03-09T18:27:51.185Z,16.30
2019-03-09T18:30:19.573Z,16.30
2019-03-09T18:32:47.937Z,16.20
2019-03-09T18:35:16.449Z,16.20
2019-03-09T18:37:44.863Z,16.20
2019-03-09T18:40:17.097Z,16.20
2019-03-09T18:42:45.695Z,16.10
2019-03-09T18:45:24.153Z,16.00
2019-03-09T18:47:52.671Z,16.10
2019-03-09T18:50:21.129Z,16.00
2019-03-09T18:52:49.499Z,15.90
2019-03-09T18:55:18.001Z,15.80
2019-03-09T18:57:46.335Z,15.70
2019-03-09T19:00:19.650Z,15.70
2019-03-09T19:02:48.054Z,15.60
2019-03-09T19:05:16.465Z,15.60
2019-03-09T19:07:44.968Z,15.50
2019-03-09T19:10:18.381Z,15.40
2019-03-09T19:12:46.742Z,15.30
2019-03-09T19:15:16.617Z,15.20
2019-03-09T19:17:45.167Z,15.20
2019-03-09T19:20:17.719Z,15.20
2019-03-09T19:22:46.315Z,15.10
2019-03-09T19:25:15.513Z,15.10
2019-03-09T19:27:43.997Z,15.00
2019-03-09T19:30:20.563Z,15.00
2019-03-09T19:32:48.305Z,14.90
2019-03-09T19:35:16.720Z,14.70
2019-03-09T19:37:45.512Z,14.50
2019-03-09T19:40:22.076Z,14.40
2019-03-09T19:42:50.164Z,14.30
2019-03-09T19:45:22.984Z,14.20
2019-03-09T19:47:53.650Z,14.20
2019-03-09T19:50:28.477Z,14.20
2019-03-09T19:52:58.938Z,14.30
2019-03-09T19:55:27.356Z,14.30
2019-03-09T19:57:56.255Z,14.30
2019-03-09T20:00:25.519Z,14.20
2019-03-09T20:02:55.857Z,14.20
2019-03-09T20:05:24.994Z,14.10
2019-03-09T20:07:53.924Z,14.00
2019-03-09T20:10:23.553Z,13.90
2019-03-09T20:12:52.439Z,14.00
2019-03-09T20:15:21.436Z,14.00
2019-03-09T20:17:50.424Z,14.00
2019-03-09T20:20:21.442Z,14.00
2019-03-09T20:22:51.412Z,14.10
2019-03-09T20:25:20.629Z,14.00
2019-03-09T20:27:49.635Z,14.00
2019-03-09T20:30:20.586Z,13.90
2019-03-09T20:32:49.224Z,13.80
2019-03-09T20:35:18.103Z,13.90
2019-03-09T20:37:46.997Z,13.90
2019-03-09T20:40:16.695Z,13.90
2019-03-09T20:42:46.141Z,13.90
2019-03-09T20:45:18.809Z,13.90
2019-03-09T20:47:47.895Z,13.90
2019-03-09T20:50:18.712Z,13.80
2019-03-09T20:52:47.255Z,13.70
2019-03-09T20:55:16.776Z,13.60
2019-03-09T20:57:45.829Z,13.60
2019-03-09T21:00:18.958Z,13.50
2019-03-09T21:02:48.284Z,13.40
2019-03-09T21:05:17.139Z,13.30
2019-03-09T21:07:46.443Z,13.20
2019-03-09T21:10:17.458Z,13.10
2019-03-09T21:13:05.499Z,13.10
2019-03-09T21:15:34.786Z,13.10
2019-03-09T21:18:04.172Z,13.10
2019-03-09T21:20:33.500Z,13.00
2019-03-09T21:23:02.909Z,13.10
2019-03-09T21:25:52.766Z,13.10
2019-03-09T21:28:21.402Z,13.10
2019-03-09T21:30:50.450Z,13.20
2019-03-09T21:33:19.655Z,13.20
2019-03-09T21:35:48.675Z,13.20
2019-03-09T21:41:06.357Z,13.20
2019-03-09T21:43:34.756Z,13.10
2019-03-09T21:46:03.284Z,13.10
2019-03-09T21:48:33.751Z,13.20
2019-03-09T21:51:02.092Z,13.10
2019-03-09T21:53:30.588Z,13.10
2019-03-09T21:55:59.021Z,13.10
2019-03-09T21:58:27.425Z,13.20
2019-03-09T22:00:55.714Z,13.20
2019-03-09T22:03:24.187Z,13.20
2019-03-09T22:05:52.655Z,13.20
2019-03-09T22:08:21.074Z,13.00
2019-03-09T22:10:49.429Z,13.00
2019-03-09T22:13:18.662Z,13.00
2019-03-09T22:15:47.210Z,13.00
2019-03-09T22:18:15.674Z,13.00
2019-03-09T22:20:46.196Z,12.90
2019-03-09T22:23:14.698Z,12.90
2019-03-09T22:25:43.181Z,12.90
2019-03-09T22:28:11.560Z,12.90
2019-03-09T22:30:40.009Z,12.80
2019-03-09T22:33:08.302Z,12.70
2019-03-09T22:35:36.665Z,12.70
2019-03-09T22:38:05.118Z,12.60
2019-03-09T22:40:33.594Z,12.50
2019-03-09T22:43:02.078Z,12.50
2019-03-09T22:45:30.616Z,12.50
2019-03-09T22:47:59.012Z,12.50
2019-03-09T22:50:27.560Z,12.40
2019-03-09T22:52:56.069Z,12.30
2019-03-09T22:55:24.483Z,12.30
2019-03-09T22:57:52.861Z,12.20
2019-03-09T23:00:27.614Z,12.20
2019-03-09T23:02:55.936Z,12.10
2019-03-09T23:05:24.372Z,12.10
2019-03-09T23:07:52.899Z,12.10
2019-03-09T23:10:23.757Z,12.10
2019-03-09T23:12:52.301Z,12.10
2019-03-09T23:15:20.753Z,12.10
2019-03-09T23:17:49.474Z,12.10
2019-03-09T23:20:17.894Z,12.10
2019-03-09T23:22:46.366Z,12.10
2019-03-09T23:25:15.193Z,12.10
2019-03-09T23:27:43.601Z,12.10
2019-03-09T23:30:21.786Z,12.10
2019-03-09T23:32:50.292Z,12.00
2019-03-09T23:35:18.712Z,12.00
2019-03-09T23:37:50.189Z,12.00
2019-03-09T23:40:24.862Z,12.00
2019-03-09T23:42:53.263Z,12.00
2019-03-09T23:45:24.221Z,11.90
2019-03-09T23:47:52.793Z,11.90
2019-03-09T23:50:21.403Z,11.90
2019-03-09T23:52:49.984Z,12.00
2019-03-09T23:55:22.626Z,12.00
2019-03-09T23:57:48.584Z,12.00
